Time;durP1;ratioP1;P1;durP2;ratioP2;P2;SDS_P1;SDS_P2;PMS_P1;PMS_P2;Temp;Humidity;BMP_temperature;BMP_pressure;BME280_temperature;BME280_humidity;BME280_pressure;Samples;Min_cycle;Max_cycle;Signal;HPM_P1;HPM_P2
2024/01/13 00:02:26;;;;;;;3.90;3.80;;;15.20;66.80;;;;;;5032509;28;43427;-77
2024/01/13 00:04:54;;;;;;;3.90;3.80;;;15.20;66.10;;;;;;5051789;28;43912;-72
2024/01/13 00:07:22;;;;;;;3.87;3.77;;;15.30;66.20;;;;;;5034195;28;46192;-72
2024/01/13 00:09:51;;;;;;;3.63;3.53;;;15.30;66.20;;;;;;5035705;28;43428;-72
2024/01/13 00:12:19;;;;;;;4.27;4.10;;;15.20;66.80;;;;;;5039367;28;43429;-72
2024/01/13 00:14:47;;;;;;;3.40;3.30;;;15.20;66.20;;;;;;5041987;28;44069;-72
2024/01/13 00:17:15;;;;;;;4.30;4.10;;;15.20;66.20;;;;;;5032588;28;44034;-72
2024/01/13 00:19:43;;;;;;;3.80;3.70;;;15.20;66.30;;;;;;5039659;28;43387;-72
2024/01/13 00:22:12;;;;;;;3.97;3.87;;;15.20;66.30;;;;;;5044495;28;43552;-72
2024/01/13 00:24:40;;;;;;;3.70;3.60;;;15.30;66.20;;;;;;5034708;28;43714;-72
2024/01/13 00:27:09;;;;;;;4.07;3.87;;;15.40;65.80;;;;;;5031746;28;44504;-72
2024/01/13 00:29:37;;;;;;;3.90;3.80;;;15.50;65.60;;;;;;5038982;28;43427;-72
2024/01/13 00:32:06;;;;;;;4.00;3.90;;;15.40;65.50;;;;;;5042305;28;43312;-72
2024/01/13 00:34:37;;;;;;;3.90;3.80;;;15.40;65.70;;;;;;5051930;28;45730;-71
2024/01/13 00:37:05;;;;;;;4.07;3.90;;;15.40;65.80;;;;;;5033371;28;43494;-71
2024/01/13 00:39:33;;;;;;;3.67;3.57;;;15.30;65.90;;;;;;5047689;28;43498;-71
2024/01/13 00:42:01;;;;;;;3.67;3.57;;;15.30;65.90;;;;;;5038103;28;43424;-71
2024/01/13 00:44:30;;;;;;;4.17;3.97;;;15.30;65.90;;;;;;5047988;28;43881;-71
2024/01/13 00:46:58;;;;;;;4.00;3.90;;;15.30;65.90;;;;;;5043551;28;43817;-71
2024/01/13 00:49:26;;;;;;;3.80;3.70;;;15.30;66.00;;;;;;5032688;28;43421;-72
2024/01/13 00:51:55;;;;;;;4.00;3.90;;;15.30;66.10;;;;;;5049160;28;43575;-72
2024/01/13 00:54:23;;;;;;;3.87;3.73;;;15.30;66.90;;;;;;5034767;28;44336;-72
2024/01/13 00:56:53;;;;;;;3.80;3.70;;;15.20;66.20;;;;;;5045794;28;45281;-72
2024/01/13 00:59:21;;;;;;;3.63;3.53;;;15.20;66.20;;;;;;5034629;28;43406;-72
2024/01/13 01:01:51;;;;;;;3.83;3.73;;;15.20;66.10;;;;;;5038534;28;43550;-72
2024/01/13 01:04:19;;;;;;;3.60;3.50;;;15.20;66.90;;;;;;5037916;28;43596;-72
2024/01/13 01:06:47;;;;;;;3.83;3.73;;;15.20;66.20;;;;;;5051293;28;43508;-72
2024/01/13 01:09:16;;;;;;;3.90;3.80;;;15.20;66.20;;;;;;5049879;28;43507;-72
2024/01/13 01:11:44;;;;;;;3.97;3.87;;;15.20;66.20;;;;;;5038045;28;43498;-72
2024/01/13 01:14:12;;;;;;;3.93;3.83;;;15.20;66.20;;;;;;5042131;28;43608;-72
2024/01/13 01:16:40;;;;;;;4.00;3.90;;;15.20;66.40;;;;;;5045797;28;43447;-72
2024/01/13 01:19:10;;;;;;;3.60;3.50;;;15.30;67.10;;;;;;5036099;28;43448;-72
2024/01/13 01:21:40;;;;;;;4.30;4.10;;;15.30;65.90;;;;;;5050046;28;43487;-72
2024/01/13 01:24:08;;;;;;;3.90;3.80;;;15.30;65.70;;;;;;5037901;28;45826;-72
2024/01/13 01:26:36;;;;;;;4.17;4.00;;;15.40;66.60;;;;;;5037083;28;43529;-72
2024/01/13 01:29:05;;;;;;;3.93;3.83;;;15.30;65.80;;;;;;5042086;28;43439;-72
2024/01/13 01:31:33;;;;;;;4.10;4.00;;;15.30;66.00;;;;;;5036634;28;44619;-72
2024/01/13 01:34:01;;;;;;;3.60;3.50;;;15.30;66.10;;;;;;5038506;28;43634;-72
2024/01/13 01:36:30;;;;;;;3.50;3.40;;;15.30;66.80;;;;;;5039548;28;43860;-72
2024/01/13 01:38:58;;;;;;;4.13;4.03;;;15.30;66.10;;;;;;5037150;28;43501;-72
2024/01/13 01:41:27;;;;;;;4.00;3.90;;;15.30;66.10;;;;;;5040435;28;43636;-72
2024/01/13 01:43:55;;;;;;;4.00;3.90;;;15.30;66.20;;;;;;5033525;28;43612;-72
2024/01/13 01:46:24;;;;;;;4.03;3.93;;;15.30;66.20;;;;;;5043095;28;44098;-73
2024/01/13 01:48:56;;;;;;;3.77;3.67;;;15.20;66.10;;;;;;5044096;28;43308;-72
2024/01/13 01:51:25;;;;;;;4.40;4.20;;;15.20;66.20;;;;;;5051587;28;43484;-72
2024/01/13 01:53:55;;;;;;;4.13;4.00;;;15.20;66.40;;;;;;5046827;28;43837;-72
2024/01/13 01:56:24;;;;;;;3.80;3.70;;;15.30;66.50;;;;;;5051104;28;45417;-72
2024/01/13 01:58:52;;;;;;;4.00;3.90;;;15.30;66.70;;;;;;5038785;28;43539;-72
2024/01/13 02:01:21;;;;;;;3.90;3.70;;;15.30;65.90;;;;;;5036234;28;43516;-72
2024/01/13 02:03:49;;;;;;;3.67;3.57;;;15.30;65.90;;;;;;5050681;28;46565;-71
2024/01/13 02:06:17;;;;;;;4.10;3.97;;;15.30;65.90;;;;;;5041935;28;43354;-71
2024/01/13 02:08:46;;;;;;;3.87;3.77;;;15.30;66.00;;;;;;5040840;28;43516;-71
2024/01/13 02:11:16;;;;;;;3.80;3.70;;;15.30;66.10;;;;;;5047843;28;43488;-72
2024/01/13 02:13:45;;;;;;;3.70;3.60;;;15.30;66.20;;;;;;5041783;28;43829;-72
2024/01/13 02:16:13;;;;;;;4.10;4.00;;;15.30;66.10;;;;;;5047987;28;44071;-72
2024/01/13 02:18:41;;;;;;;3.50;3.40;;;15.30;66.10;;;;;;5040406;28;43431;-72
2024/01/13 02:21:11;;;;;;;3.90;3.80;;;15.30;66.20;;;;;;5033297;28;43468;-72
2024/01/13 02:23:43;;;;;;;3.97;3.87;;;15.20;66.10;;;;;;5043967;28;43833;-72
2024/01/13 02:26:11;;;;;;;3.87;3.77;;;15.20;66.10;;;;;;5038541;28;44004;-72
2024/01/13 02:28:39;;;;;;;3.80;3.70;;;15.20;66.20;;;;;;5037570;28;43456;-71
2024/01/13 02:31:15;;;;;;;4.23;4.03;;;15.20;66.40;;;;;;5035317;28;43486;-71
2024/01/13 02:33:48;;;;;;;4.40;4.20;;;15.20;66.30;;;;;;5032445;28;43683;-71
2024/01/13 02:36:17;;;;;;;3.63;3.53;;;15.30;66.00;;;;;;5034532;28;43440;-71
2024/01/13 02:38:47;;;;;;;3.87;3.77;;;15.30;65.90;;;;;;5044539;28;43541;-71
2024/01/13 02:41:15;;;;;;;4.20;4.10;;;15.30;65.90;;;;;;5043241;28;43499;-71
2024/01/13 02:43:43;;;;;;;4.37;4.27;;;15.30;65.90;;;;;;5040455;28;43940;-71
2024/01/13 02:46:11;;;;;;;3.83;3.73;;;15.30;66.00;;;;;;5048580;28;43790;-71
2024/01/13 02:48:40;;;;;;;4.13;4.03;;;15.30;66.10;;;;;;5042798;28;43411;-71
2024/01/13 02:51:12;;;;;;;3.60;3.50;;;15.30;66.20;;;;;;5037548;28;43485;-71
2024/01/13 02:53:41;;;;;;;3.70;3.60;;;15.30;66.20;;;;;;5039707;28;44091;-71
2024/01/13 02:56:10;;;;;;;4.20;4.10;;;15.30;66.20;;;;;;5030747;28;43818;-71
2024/01/13 02:58:38;;;;;;;4.00;3.90;;;15.30;66.20;;;;;;5036757;28;43400;-71
2024/01/13 03:01:13;;;;;;;4.00;3.90;;;15.20;66.10;;;;;;5047445;28;43491;-71
2024/01/13 03:03:41;;;;;;;4.50;4.30;;;15.20;66.20;;;;;;5036473;28;43706;-72
2024/01/13 03:06:10;;;;;;;4.23;4.13;;;15.20;66.20;;;;;;5032342;28;43830;-71
2024/01/13 03:08:38;;;;;;;3.90;3.80;;;15.20;66.40;;;;;;5035081;28;43481;-71
2024/01/13 03:11:14;;;;;;;4.30;4.20;;;15.20;66.40;;;;;;5035241;28;43376;-71
2024/01/13 03:13:43;;;;;;;4.27;4.17;;;15.30;66.20;;;;;;5039186;28;43835;-71
2024/01/13 03:16:12;;;;;;;3.87;3.77;;;15.30;66.00;;;;;;5033598;28;43490;-71
2024/01/13 03:18:40;;;;;;;4.13;4.00;;;15.30;66.10;;;;;;5032190;28;43496;-72
2024/01/13 03:21:11;;;;;;;4.20;4.03;;;15.30;66.10;;;;;;5040217;28;43494;-73
2024/01/13 03:23:42;;;;;;;3.77;3.67;;;15.20;66.10;;;;;;5033914;28;44154;-76
2024/01/13 03:26:11;;;;;;;3.90;3.80;;;15.20;66.20;;;;;;5041999;28;43453;-71
2024/01/13 03:28:41;;;;;;;3.83;3.73;;;15.20;66.30;;;;;;5046357;28;43952;-71
2024/01/13 03:31:11;;;;;;;3.90;3.80;;;15.20;66.20;;;;;;5036099;28;43502;-71
2024/01/13 03:33:43;;;;;;;4.30;4.20;;;15.20;66.30;;;;;;5036223;28;44231;-71
2024/01/13 03:36:11;;;;;;;3.90;3.80;;;15.20;66.30;;;;;;5033698;28;43423;-71
2024/01/13 03:38:40;;;;;;;4.40;4.23;;;15.20;66.40;;;;;;5045586;27;43403;-69
2024/01/13 03:41:12;;;;;;;4.13;4.03;;;15.20;66.40;;;;;;5068163;27;43408;-69
2024/01/13 03:43:42;;;;;;;4.90;4.70;;;15.20;66.40;;;;;;5058830;27;43647;-70
2024/01/13 03:46:11;;;;;;;3.97;3.87;;;15.10;66.50;;;;;;5069873;27;43376;-69
2024/01/13 03:48:39;;;;;;;4.30;4.20;;;15.20;66.70;;;;;;5061088;28;43400;-69
2024/01/13 03:51:10;;;;;;;3.93;3.83;;;15.20;66.30;;;;;;5064629;28;43497;-69
2024/01/13 03:53:39;;;;;;;4.10;4.00;;;15.30;66.10;;;;;;5068115;27;43870;-69
2024/01/13 03:56:08;;;;;;;4.03;3.93;;;15.30;66.10;;;;;;5058963;28;43450;-69
2024/01/13 03:58:37;;;;;;;3.70;3.60;;;15.30;66.10;;;;;;5060164;28;43409;-68
2024/01/13 04:01:07;;;;;;;4.00;3.90;;;15.30;66.20;;;;;;5057138;28;43415;-69
2024/01/13 04:03:36;;;;;;;4.07;3.97;;;15.20;66.10;;;;;;5069948;27;43963;-70
2024/01/13 04:06:05;;;;;;;4.07;3.97;;;15.20;66.50;;;;;;5065967;27;43384;-69
2024/01/13 04:08:34;;;;;;;4.13;4.03;;;15.20;66.30;;;;;;5072663;28;43712;-70
2024/01/13 04:11:05;;;;;;;4.03;3.93;;;15.20;66.30;;;;;;5068323;28;43515;-70
2024/01/13 04:13:33;;;;;;;3.83;3.70;;;15.20;66.30;;;;;;5069350;28;45680;-68
2024/01/13 04:16:02;;;;;;;3.83;3.73;;;15.20;66.30;;;;;;5071710;27;43893;-69
2024/01/13 04:18:31;;;;;;;3.60;3.50;;;15.20;66.30;;;;;;5062279;28;43527;-69
2024/01/13 04:21:00;;;;;;;4.13;4.03;;;15.20;66.30;;;;;;5067779;28;43474;-69
2024/01/13 04:23:43;;;;;;;4.13;4.03;;;15.20;66.40;;;;;;5058595;28;43693;-70
2024/01/13 04:26:12;;;;;;;4.10;4.00;;;15.20;66.40;;;;;;5074286;28;43491;-70
2024/01/13 04:28:40;;;;;;;3.97;3.87;;;15.30;66.20;;;;;;5061935;28;43508;-70
2024/01/13 04:31:08;;;;;;;4.13;4.00;;;15.30;65.90;;;;;;5065295;27;43405;-70
2024/01/13 04:33:37;;;;;;;3.47;3.37;;;15.40;66.00;;;;;;5063648;27;43949;-71
2024/01/13 04:36:06;;;;;;;3.83;3.73;;;15.30;65.90;;;;;;5073360;27;43414;-71
2024/01/13 04:38:34;;;;;;;3.60;3.50;;;15.30;65.90;;;;;;5071970;27;43375;-71
2024/01/13 04:41:02;;;;;;;4.00;3.90;;;15.30;66.00;;;;;;5069268;27;43488;-70
2024/01/13 04:43:30;;;;;;;3.90;3.80;;;15.30;66.10;;;;;;5073877;27;43852;-70
2024/01/13 04:45:59;;;;;;;3.90;3.80;;;15.30;66.10;;;;;;5075880;27;43466;-70
2024/01/13 04:48:27;;;;;;;3.67;3.57;;;15.30;66.30;;;;;;5058079;27;43806;-73
2024/01/13 04:50:56;;;;;;;4.00;3.80;;;15.30;66.10;;;;;;5042496;28;43360;-72
2024/01/13 04:53:24;;;;;;;4.13;4.00;;;15.30;66.10;;;;;;5048441;28;43952;-72
2024/01/13 04:55:52;;;;;;;3.73;3.63;;;15.30;66.90;;;;;;5036222;28;43486;-72
2024/01/13 04:58:20;;;;;;;3.70;3.60;;;15.30;66.20;;;;;;5035765;28;43561;-72
2024/01/13 05:00:48;;;;;;;3.73;3.63;;;15.20;66.20;;;;;;5049079;28;43433;-72
2024/01/13 05:03:19;;;;;;;4.10;4.00;;;15.20;66.40;;;;;;5036919;28;44143;-71
2024/01/13 05:05:47;;;;;;;3.93;3.83;;;15.30;66.30;;;;;;5047088;28;43440;-72
2024/01/13 05:08:16;;;;;;;3.73;3.63;;;15.40;66.00;;;;;;5036580;28;44119;-72
2024/01/13 05:10:44;;;;;;;3.70;3.60;;;15.40;65.80;;;;;;5042914;28;43340;-71
2024/01/13 05:13:13;;;;;;;4.30;4.20;;;15.40;65.80;;;;;;5045709;28;43587;-72
2024/01/13 05:15:41;;;;;;;3.63;3.53;;;15.40;65.90;;;;;;5038476;28;43421;-72
2024/01/13 05:18:09;;;;;;;3.70;3.60;;;15.40;66.00;;;;;;5041159;28;43410;-72
2024/01/13 05:20:37;;;;;;;3.50;3.40;;;15.30;66.00;;;;;;5040230;28;44038;-71
2024/01/13 05:23:05;;;;;;;3.30;3.20;;;15.30;66.00;;;;;;5044486;28;43653;-71
2024/01/13 05:25:34;;;;;;;3.50;3.40;;;15.30;66.00;;;;;;5037324;28;43536;-72
2024/01/13 05:28:03;;;;;;;3.83;3.73;;;15.30;66.00;;;;;;5050419;28;43470;-72
2024/01/13 05:30:33;;;;;;;3.60;3.50;;;15.30;66.10;;;;;;5039414;28;43452;-72
2024/01/13 05:33:02;;;;;;;3.30;3.20;;;15.30;66.10;;;;;;5052544;28;44340;-71
2024/01/13 05:35:30;;;;;;;3.70;3.60;;;15.30;66.20;;;;;;5031763;28;43505;-71
2024/01/13 05:37:58;;;;;;;3.37;3.27;;;15.30;66.20;;;;;;5044566;28;43387;-72
2024/01/13 05:40:26;;;;;;;3.67;3.57;;;15.30;66.40;;;;;;5038625;28;43512;-72
2024/01/13 05:42:55;;;;;;;3.53;3.43;;;15.30;66.10;;;;;;5036190;28;43961;-72
2024/01/13 05:45:23;;;;;;;3.23;3.13;;;15.30;66.00;;;;;;5033369;28;43340;-72
2024/01/13 05:47:52;;;;;;;3.30;3.20;;;15.30;66.00;;;;;;5035678;28;43556;-71
2024/01/13 05:50:20;;;;;;;3.37;3.27;;;15.30;66.70;;;;;;5033240;28;43497;-71
2024/01/13 05:52:48;;;;;;;2.93;2.90;;;15.30;66.20;;;;;;5047344;28;45387;-71
2024/01/13 05:55:16;;;;;;;2.90;2.90;;;15.30;66.20;;;;;;5037093;28;43538;-72
2024/01/13 05:57:44;;;;;;;3.10;3.00;;;15.30;66.20;;;;;;5042841;28;43475;-71
2024/01/13 06:00:14;;;;;;;3.30;3.20;;;15.30;66.90;;;;;;5061930;28;43440;-70
2024/01/13 06:02:44;;;;;;;3.10;3.00;;;15.30;66.20;;;;;;5068555;28;45684;-70
2024/01/13 06:05:12;;;;;;;3.60;3.50;;;15.30;66.20;;;;;;5061721;28;43446;-70
2024/01/13 06:07:40;;;;;;;3.30;3.20;;;15.30;66.30;;;;;;5057692;28;43372;-70
2024/01/13 06:10:11;;;;;;;3.20;3.10;;;15.30;66.30;;;;;;5068866;27;43409;-70
2024/01/13 06:12:39;;;;;;;2.73;2.73;;;15.30;66.40;;;;;;5058175;28;45754;-70
2024/01/13 06:15:09;;;;;;;3.20;3.10;;;15.20;66.30;;;;;;5067036;28;43412;-69
2024/01/13 06:17:38;;;;;;;3.10;3.00;;;15.20;66.40;;;;;;5067724;28;43391;-70
2024/01/13 06:20:08;;;;;;;3.30;3.20;;;15.20;66.30;;;;;;5070617;27;43494;-70
2024/01/13 06:22:37;;;;;;;2.80;2.80;;;15.40;66.10;;;;;;5065728;28;43767;-69
2024/01/13 06:25:06;;;;;;;2.90;2.80;;;15.40;65.80;;;;;;5065127;27;44958;-70
2024/01/13 06:27:34;;;;;;;2.83;2.83;;;15.40;65.70;;;;;;5061227;28;43489;-70
2024/01/13 06:30:02;;;;;;;2.73;2.73;;;15.40;65.80;;;;;;5067507;28;43854;-70
2024/01/13 06:32:31;;;;;;;3.13;3.03;;;15.40;65.80;;;;;;5063631;28;43855;-70
2024/01/13 06:35:01;;;;;;;3.07;2.97;;;15.40;65.90;;;;;;5073046;27;45082;-70
2024/01/13 06:37:29;;;;;;;3.17;3.07;;;15.40;66.00;;;;;;5065125;28;43374;-70
2024/01/13 06:39:57;;;;;;;2.70;2.70;;;15.40;66.00;;;;;;5060529;28;43419;-69
2024/01/13 06:42:25;;;;;;;2.93;2.83;;;15.40;66.00;;;;;;5062916;28;43584;-70
2024/01/13 06:44:53;;;;;;;2.70;2.70;;;15.40;66.00;;;;;;5074053;27;43457;-69
2024/01/13 06:47:22;;;;;;;3.00;2.90;;;15.40;66.10;;;;;;5062485;28;43595;-71
2024/01/13 06:49:50;;;;;;;2.63;2.60;;;15.30;66.00;;;;;;5063457;27;43352;-71
2024/01/13 06:52:22;;;;;;;2.80;2.80;;;15.30;66.10;;;;;;5070178;27;43856;-71
2024/01/13 06:54:50;;;;;;;3.00;2.90;;;15.30;66.10;;;;;;5062893;27;43360;-69
2024/01/13 06:57:20;;;;;;;3.20;3.10;;;15.30;66.80;;;;;;5064772;27;43324;-69
2024/01/13 06:59:48;;;;;;;2.60;2.60;;;15.30;66.10;;;;;;5058195;28;44275;-70
2024/01/13 07:02:16;;;;;;;2.90;2.87;;;15.30;66.00;;;;;;5066350;27;43613;-69
2024/01/13 07:04:45;;;;;;;2.73;2.73;;;15.30;66.10;;;;;;5063871;27;43431;-69
2024/01/13 07:07:13;;;;;;;2.87;2.77;;;15.30;66.10;;;;;;5064006;27;43481;-69
2024/01/13 07:09:42;;;;;;;2.90;2.80;;;15.30;66.20;;;;;;5031563;28;43466;-72
2024/01/13 07:12:10;;;;;;;2.83;2.77;;;15.30;66.30;;;;;;5040953;28;43593;-71
2024/01/13 07:14:38;;;;;;;2.93;2.90;;;15.30;67.10;;;;;;5039394;28;43474;-71
2024/01/13 07:17:07;;;;;;;3.10;3.00;;;15.30;66.30;;;;;;5035353;28;43328;-71
2024/01/13 07:19:36;;;;;;;2.93;2.83;;;15.40;65.90;;;;;;5036203;28;43440;-71
2024/01/13 07:22:05;;;;;;;2.60;2.60;;;15.40;65.80;;;;;;5042488;28;43864;-71
2024/01/13 07:24:33;;;;;;;3.00;2.90;;;15.40;65.80;;;;;;5037277;28;43444;-71
2024/01/13 07:27:03;;;;;;;2.87;2.77;;;15.40;65.80;;;;;;5041940;28;43462;-71
2024/01/13 07:29:31;;;;;;;2.87;2.77;;;15.30;65.80;;;;;;5039920;28;43538;-71
2024/01/13 07:31:59;;;;;;;3.07;2.97;;;15.30;66.70;;;;;;5033493;28;43936;-71
2024/01/13 07:34:27;;;;;;;2.90;2.80;;;15.30;66.80;;;;;;5034593;28;43516;-71
2024/01/13 07:36:55;;;;;;;2.60;2.60;;;15.30;66.00;;;;;;5044059;28;44048;-71
2024/01/13 07:39:23;;;;;;;2.70;2.70;;;15.30;66.10;;;;;;5042110;28;43450;-71
2024/01/13 07:41:52;;;;;;;2.60;2.60;;;15.30;66.10;;;;;;5042354;28;43795;-71
2024/01/13 07:44:21;;;;;;;2.53;2.53;;;15.30;66.20;;;;;;5052076;28;43957;-73
2024/01/13 07:46:49;;;;;;;2.47;2.47;;;15.30;66.20;;;;;;5039683;28;43831;-71
2024/01/13 07:49:17;;;;;;;2.87;2.87;;;15.30;66.30;;;;;;5043731;28;43542;-72
2024/01/13 07:51:49;;;;;;;2.30;2.30;;;15.30;66.40;;;;;;5047761;28;44131;-72
2024/01/13 07:54:18;;;;;;;2.80;2.80;;;15.30;66.30;;;;;;5039120;28;43468;-71
2024/01/13 07:56:46;;;;;;;2.60;2.60;;;15.40;66.00;;;;;;5040725;28;43510;-71
2024/01/13 07:59:14;;;;;;;2.50;2.50;;;15.40;65.90;;;;;;5039597;28;43350;-71
2024/01/13 08:01:43;;;;;;;2.70;2.70;;;15.40;65.90;;;;;;5041573;28;46111;-71
2024/01/13 08:04:12;;;;;;;2.70;2.70;;;15.40;66.00;;;;;;5039339;28;43474;-71
2024/01/13 08:06:40;;;;;;;2.63;2.63;;;15.30;65.90;;;;;;5043087;28;44024;-71
2024/01/13 08:09:09;;;;;;;2.70;2.70;;;15.30;66.10;;;;;;5040035;28;43826;-72
2024/01/13 08:11:37;;;;;;;2.60;2.60;;;15.30;66.00;;;;;;5037010;28;43779;-71
2024/01/13 08:14:09;;;;;;;2.67;2.60;;;15.30;66.00;;;;;;5037991;28;46256;-73
2024/01/13 08:16:38;;;;;;;2.90;2.80;;;15.30;66.10;;;;;;5037048;28;43427;-71
2024/01/13 08:19:09;;;;;;;3.20;3.10;;;15.30;66.10;;;;;;5065176;27;43543;-71
2024/01/13 08:21:37;;;;;;;2.97;2.87;;;15.30;66.20;;;;;;5065626;28;45838;-70
2024/01/13 08:24:09;;;;;;;13.23;5.47;;;15.30;66.20;;;;;;5060184;28;44884;-70
2024/01/13 08:26:39;;;;;;;23.37;6.77;;;15.30;66.20;;;;;;5065313;27;43387;-71
2024/01/13 08:29:07;;;;;;;15.07;5.33;;;15.20;65.80;;;;;;5067352;27;43572;-70
2024/01/13 08:31:35;;;;;;;15.30;6.13;;;15.30;66.10;;;;;;5072147;27;43767;-69
2024/01/13 08:34:09;;;;;;;11.83;5.70;;;15.30;65.80;;;;;;5070441;27;43363;-69
2024/01/13 08:36:40;;;;;;;10.77;5.23;;;15.30;65.80;;;;;;5071225;27;43491;-70
2024/01/13 08:39:09;;;;;;;11.60;5.37;;;15.30;65.70;;;;;;5084828;27;43652;-69
2024/01/13 08:41:37;;;;;;;13.93;5.57;;;15.30;65.80;;;;;;5074914;27;43837;-69
2024/01/13 08:44:05;;;;;;;15.37;5.40;;;15.30;65.90;;;;;;5071337;28;44908;-69
2024/01/13 08:46:34;;;;;;;9.10;5.37;;;15.30;65.80;;;;;;5061685;28;43417;-69
2024/01/13 08:49:02;;;;;;;5.23;4.63;;;15.30;65.90;;;;;;5069235;27;43419;-69
2024/01/13 08:51:31;;;;;;;7.67;4.90;;;15.30;65.90;;;;;;5061104;27;43962;-69
2024/01/13 08:54:03;;;;;;;5.40;4.87;;;15.30;66.00;;;;;;5068163;27;43309;-68
2024/01/13 08:56:34;;;;;;;9.00;4.63;;;15.30;66.00;;;;;;5068115;27;43447;-69
2024/01/13 08:59:05;;;;;;;12.47;5.63;;;15.30;66.10;;;;;;5063739;28;43349;-70
2024/01/13 09:01:33;;;;;;;7.80;5.20;;;15.20;66.00;;;;;;5059660;28;43920;-69
2024/01/13 09:04:06;;;;;;;8.50;5.40;;;15.30;66.20;;;;;;5072385;27;44388;-69
2024/01/13 09:06:36;;;;;;;8.77;5.40;;;15.20;66.10;;;;;;5065342;28;43482;-69
2024/01/13 09:09:05;;;;;;;8.33;5.03;;;15.30;66.30;;;;;;5067030;28;43415;-71
2024/01/13 09:11:34;;;;;;;12.13;5.50;;;15.30;65.90;;;;;;5062146;27;43835;-70
2024/01/13 09:14:11;;;;;;;8.33;5.60;;;15.40;65.80;;;;;;5071480;28;45758;-69
2024/01/13 09:16:41;;;;;;;7.47;4.87;;;15.40;65.80;;;;;;5069587;28;43447;-70
2024/01/13 09:19:09;;;;;;;7.87;5.37;;;15.40;65.80;;;;;;5058565;28;43468;-69
2024/01/13 09:21:40;;;;;;;7.83;5.67;;;15.40;65.90;;;;;;5062445;28;43919;-69
2024/01/13 09:24:13;;;;;;;8.73;5.50;;;15.30;65.80;;;;;;5064923;28;43482;-69
2024/01/13 09:26:42;;;;;;;6.53;5.10;;;15.30;65.90;;;;;;5054810;28;43468;-69
2024/01/13 09:29:13;;;;;;;8.63;5.20;;;15.30;65.90;;;;;;5061447;28;43475;-71
2024/01/13 09:31:42;;;;;;;9.23;5.20;;;15.30;66.00;;;;;;5069271;28;43849;-71
2024/01/13 09:34:10;;;;;;;5.80;5.20;;;15.30;66.00;;;;;;5062649;28;43912;-71
2024/01/13 09:36:42;;;;;;;7.67;5.27;;;15.30;66.10;;;;;;5057284;28;43927;-71
2024/01/13 09:39:17;;;;;;;7.23;5.00;;;15.30;66.20;;;;;;5053032;28;43840;-71
2024/01/13 09:41:46;;;;;;;7.83;4.60;;;15.30;66.20;;;;;;5059502;28;43847;-71
2024/01/13 09:44:20;;;;;;;7.00;5.10;;;15.30;66.30;;;;;;5061023;28;43462;-71
2024/01/13 09:46:48;;;;;;;8.67;5.07;;;15.30;66.20;;;;;;5052240;28;43482;-71
2024/01/13 09:49:17;;;;;;;6.40;5.27;;;15.30;66.30;;;;;;5049082;28;43450;-71
2024/01/13 09:51:47;;;;;;;7.60;5.03;;;15.30;66.20;;;;;;5058656;28;43675;-71
2024/01/13 09:54:19;;;;;;;5.63;5.07;;;15.20;66.20;;;;;;5052027;28;43370;-70
2024/01/13 09:56:47;;;;;;;5.83;5.07;;;15.20;66.20;;;;;;5057454;28;43536;-71
2024/01/13 09:59:16;;;;;;;7.07;5.33;;;15.20;66.20;;;;;;5056128;28;43853;-71
2024/01/13 10:01:44;;;;;;;8.70;6.13;;;15.20;66.30;;;;;;5051014;28;43766;-71
2024/01/13 10:04:13;;;;;;;8.33;5.50;;;15.20;66.40;;;;;;5060842;28;43436;-71
2024/01/13 10:06:41;;;;;;;6.47;5.37;;;15.30;66.20;;;;;;5050066;28;43393;-71
2024/01/13 10:09:11;;;;;;;7.10;5.40;;;15.40;65.90;;;;;;5059083;28;43486;-71
2024/01/13 10:11:59;;;;;;;7.27;5.30;;;15.50;65.70;;;;;;5050742;28;43799;-71
2024/01/13 10:14:27;;;;;;;7.40;5.00;;;15.50;65.70;;;;;;5057826;28;43408;-71
2024/01/13 10:16:56;;;;;;;6.60;5.10;;;15.40;65.70;;;;;;5062410;28;43434;-71
2024/01/13 10:19:25;;;;;;;6.77;5.10;;;15.40;65.80;;;;;;5052899;28;43629;-71
2024/01/13 10:21:57;;;;;;;5.53;5.00;;;15.30;66.60;;;;;;5063257;28;43856;-70
2024/01/13 10:24:26;;;;;;;6.63;4.33;;;15.40;66.00;;;;;;5058329;28;44274;-71
2024/01/13 10:26:55;;;;;;;5.03;4.60;;;15.30;66.00;;;;;;5053313;28;43459;-71
2024/01/13 10:29:24;;;;;;;5.57;4.90;;;15.30;66.10;;;;;;5057626;28;43461;-71
2024/01/13 10:31:52;;;;;;;8.77;5.33;;;15.30;66.10;;;;;;5052627;28;45447;-72
2024/01/13 10:34:20;;;;;;;6.33;4.80;;;15.30;66.10;;;;;;5050383;28;43454;-71
2024/01/13 10:36:48;;;;;;;9.03;6.20;;;15.30;65.80;;;;;;5059050;28;43486;-70
2024/01/13 10:39:16;;;;;;;14.37;5.90;;;15.30;65.60;;;;;;5047724;28;43451;-71
2024/01/13 10:41:50;;;;;;;6.83;4.90;;;15.20;65.80;;;;;;5043653;28;45935;-72
2024/01/13 10:44:18;;;;;;;7.70;4.97;;;15.30;66.10;;;;;;5041990;28;43417;-71
2024/01/13 10:46:50;;;;;;;5.60;5.00;;;15.30;66.20;;;;;;5029087;28;43426;-71
2024/01/13 10:49:22;;;;;;;9.77;5.00;;;15.30;66.20;;;;;;5045556;28;43411;-72
2024/01/13 10:51:53;;;;;;;9.63;5.27;;;15.30;66.20;;;;;;5033546;28;43850;-71
2024/01/13 10:54:25;;;;;;;5.13;4.63;;;15.30;66.20;;;;;;5033975;28;44833;-71
2024/01/13 10:56:54;;;;;;;9.87;5.17;;;15.20;66.20;;;;;;5043251;28;43456;-71
2024/01/13 10:59:23;;;;;;;8.13;5.10;;;15.20;66.20;;;;;;5039160;28;43557;-71
2024/01/13 11:01:51;;;;;;;7.87;5.10;;;15.30;66.20;;;;;;5040391;28;43892;-71
2024/01/13 11:04:19;;;;;;;6.57;4.97;;;15.40;65.80;;;;;;5041218;28;43491;-71
2024/01/13 11:06:47;;;;;;;7.30;5.57;;;15.50;65.60;;;;;;5036948;28;43587;-71
2024/01/13 11:09:16;;;;;;;5.27;4.77;;;15.50;65.60;;;;;;5035368;28;43487;-71
2024/01/13 11:11:46;;;;;;;6.70;5.10;;;15.40;65.60;;;;;;5039725;28;43628;-71
2024/01/13 11:14:25;;;;;;;6.97;5.43;;;15.40;65.70;;;;;;5035682;28;43376;-71
2024/01/13 11:16:53;;;;;;;4.93;4.53;;;15.40;65.80;;;;;;5038163;28;43434;-71
2024/01/13 11:19:21;;;;;;;5.83;5.33;;;15.40;65.60;;;;;;5038706;28;43475;-71
2024/01/13 11:21:51;;;;;;;5.80;5.17;;;15.40;65.70;;;;;;5039208;28;43668;-72
2024/01/13 11:24:20;;;;;;;5.30;4.80;;;15.30;65.40;;;;;;5039109;28;43341;-71
2024/01/13 11:26:49;;;;;;;5.67;5.07;;;15.30;65.70;;;;;;5038826;28;43498;-71
2024/01/13 11:29:18;;;;;;;4.80;4.50;;;15.30;65.90;;;;;;5039503;28;43405;-71
2024/01/13 11:31:47;;;;;;;5.73;5.17;;;15.30;65.90;;;;;;5038887;28;43933;-71
2024/01/13 11:34:17;;;;;;;5.13;4.83;;;15.30;66.00;;;;;;5038281;28;44112;-71
2024/01/13 11:36:48;;;;;;;6.00;5.27;;;15.30;66.00;;;;;;5036269;28;43439;-71
2024/01/13 11:39:17;;;;;;;5.80;5.30;;;15.30;65.90;;;;;;5042602;28;43586;-71
2024/01/13 11:41:46;;;;;;;5.63;5.17;;;15.30;66.00;;;;;;5042894;28;44379;-71
2024/01/13 11:44:20;;;;;;;6.00;5.47;;;15.30;66.10;;;;;;5037512;28;43509;-75
2024/01/13 11:46:59;;;;;;;5.43;5.10;;;15.30;66.10;;;;;;5032231;28;43531;-71
2024/01/13 11:49:34;;;;;;;5.63;5.23;;;15.30;66.10;;;;;;5032820;28;44484;-70
2024/01/13 11:52:02;;;;;;;5.40;5.00;;;15.30;66.20;;;;;;5045775;28;43813;-71
2024/01/13 11:54:31;;;;;;;5.60;5.20;;;15.30;66.10;;;;;;5038803;28;43896;-71
2024/01/13 11:57:00;;;;;;;6.13;5.73;;;15.30;66.10;;;;;;5039278;28;43555;-71
2024/01/13 11:59:28;;;;;;;6.10;5.50;;;15.30;66.70;;;;;;5039685;28;43389;-71
2024/01/13 12:01:58;;;;;;;6.10;5.70;;;15.50;65.70;;;;;;5040807;28;44049;-71
2024/01/13 12:04:26;;;;;;;5.40;5.10;;;15.50;65.50;;;;;;5039785;28;44566;-71
2024/01/13 12:06:54;;;;;;;5.20;4.90;;;15.50;65.50;;;;;;5042155;28;43426;-70
2024/01/13 12:09:23;;;;;;;5.50;5.20;;;15.50;65.60;;;;;;5039362;28;43503;-70
2024/01/13 12:11:53;;;;;;;5.97;5.47;;;15.50;65.70;;;;;;5036078;28;43611;-72
2024/01/13 12:14:25;;;;;;;6.20;5.80;;;15.40;65.70;;;;;;5039017;28;43950;-70
2024/01/13 12:16:54;;;;;;;5.40;5.10;;;15.40;65.70;;;;;;5036753;28;43367;-70
2024/01/13 12:19:24;;;;;;;5.70;5.33;;;15.40;65.80;;;;;;5038853;28;43468;-71
2024/01/13 12:21:53;;;;;;;5.47;5.17;;;15.40;65.80;;;;;;5042808;28;43686;-71
2024/01/13 12:24:25;;;;;;;5.57;5.27;;;15.40;65.90;;;;;;5040873;28;43519;-70
2024/01/13 12:26:54;;;;;;;6.03;5.60;;;15.40;66.00;;;;;;5038696;28;43388;-70
2024/01/13 12:29:24;;;;;;;5.87;5.47;;;15.30;65.90;;;;;;5041493;28;43474;-71
2024/01/13 12:31:54;;;;;;;6.27;5.87;;;15.30;65.90;;;;;;5042258;28;44023;-71
2024/01/13 12:34:24;;;;;;;6.13;5.73;;;15.30;65.90;;;;;;5042625;28;43522;-71
2024/01/13 12:36:53;;;;;;;5.63;5.33;;;15.30;65.90;;;;;;5045380;28;43343;-71
2024/01/13 12:39:22;;;;;;;5.57;5.23;;;15.30;65.90;;;;;;5044090;28;43594;-70
2024/01/13 12:41:50;;;;;;;5.83;5.43;;;15.30;66.00;;;;;;5039291;28;43731;-71
2024/01/13 12:44:25;;;;;;;6.33;5.83;;;15.30;66.00;;;;;;5047842;28;43400;-71
2024/01/13 12:46:56;;;;;;;5.90;5.50;;;15.30;66.00;;;;;;5044376;28;43424;-71
2024/01/13 12:49:26;;;;;;;6.37;5.87;;;15.30;66.10;;;;;;5040753;28;43407;-71
2024/01/13 12:51:55;;;;;;;6.10;5.70;;;15.30;66.10;;;;;;5044915;28;43882;-71
2024/01/13 12:54:24;;;;;;;6.67;6.27;;;15.30;66.20;;;;;;5038485;28;43398;-71
2024/01/13 12:56:53;;;;;;;6.23;5.77;;;15.40;65.80;;;;;;5036280;28;43416;-71